sensor_id;sensor_type;location;lat;lon;timestamp;P1;durP1;ratioP1;P2;durP2;ratioP2
20727;SDS011;10525;50.154;8.198;2023-01-09T00:00:56;4.30;;;3.90;;
20727;SDS011;10525;50.154;8.198;2023-01-09T00:03:23;4.88;;;4.45;;
20727;SDS011;10525;50.154;8.198;2023-01-09T00:05:49;5.45;;;4.40;;
20727;SDS011;10525;50.154;8.198;2023-01-09T00:08:16;6.05;;;4.50;;
20727;SDS011;10525;50.154;8.198;2023-01-09T00:10:43;4.20;;;3.90;;
20727;SDS011;10525;50.154;8.198;2023-01-09T00:13:10;4.20;;;3.90;;
20727;SDS011;10525;50.154;8.198;2023-01-09T00:15:38;4.68;;;4.20;;
20727;SDS011;10525;50.154;8.198;2023-01-09T00:18:06;4.10;;;3.80;;
20727;SDS011;10525;50.154;8.198;2023-01-09T00:20:33;4.05;;;3.78;;
20727;SDS011;10525;50.154;8.198;2023-01-09T00:23:01;3.85;;;3.55;;
20727;SDS011;10525;50.154;8.198;2023-01-09T00:25:27;3.78;;;3.58;;
20727;SDS011;10525;50.154;8.198;2023-01-09T00:27:54;3.38;;;3.22;;
20727;SDS011;10525;50.154;8.198;2023-01-09T00:30:21;6.93;;;3.88;;
20727;SDS011;10525;50.154;8.198;2023-01-09T00:32:47;3.72;;;3.42;;
20727;SDS011;10525;50.154;8.198;2023-01-09T00:35:16;4.18;;;3.88;;
20727;SDS011;10525;50.154;8.198;2023-01-09T00:37:43;4.25;;;3.92;;
20727;SDS011;10525;50.154;8.198;2023-01-09T00:40:10;3.60;;;3.40;;
20727;SDS011;10525;50.154;8.198;2023-01-09T00:42:39;4.20;;;3.72;;
20727;SDS011;10525;50.154;8.198;2023-01-09T00:45:08;4.72;;;4.00;;
20727;SDS011;10525;50.154;8.198;2023-01-09T00:47:41;3.95;;;3.65;;
20727;SDS011;10525;50.154;8.198;2023-01-09T00:50:11;3.88;;;3.60;;
20727;SDS011;10525;50.154;8.198;2023-01-09T00:52:42;6.93;;;3.92;;
20727;SDS011;10525;50.154;8.198;2023-01-09T00:55:10;3.65;;;3.45;;
20727;SDS011;10525;50.154;8.198;2023-01-09T00:57:38;3.15;;;2.65;;
20727;SDS011;10525;50.154;8.198;2023-01-09T01:00:06;2.72;;;2.63;;
20727;SDS011;10525;50.154;8.198;2023-01-09T01:02:34;2.28;;;2.15;;
20727;SDS011;10525;50.154;8.198;2023-01-09T01:05:00;1.70;;;1.70;;
20727;SDS011;10525;50.154;8.198;2023-01-09T01:08:01;1.52;;;1.52;;
20727;SDS011;10525;50.154;8.198;2023-01-09T01:10:27;1.55;;;1.55;;
20727;SDS011;10525;50.154;8.198;2023-01-09T01:12:54;1.30;;;1.30;;
20727;SDS011;10525;50.154;8.198;2023-01-09T01:15:20;1.10;;;1.10;;
20727;SDS011;10525;50.154;8.198;2023-01-09T01:17:47;1.30;;;1.30;;
20727;SDS011;10525;50.154;8.198;2023-01-09T01:20:15;1.00;;;1.00;;
20727;SDS011;10525;50.154;8.198;2023-01-09T01:22:43;0.80;;;0.80;;
20727;SDS011;10525;50.154;8.198;2023-01-09T01:25:12;1.55;;;1.00;;
20727;SDS011;10525;50.154;8.198;2023-01-09T01:27:41;1.35;;;1.20;;
20727;SDS011;10525;50.154;8.198;2023-01-09T01:30:08;0.93;;;0.93;;
20727;SDS011;10525;50.154;8.198;2023-01-09T01:32:37;1.40;;;1.40;;
20727;SDS011;10525;50.154;8.198;2023-01-09T01:35:04;1.20;;;1.20;;
20727;SDS011;10525;50.154;8.198;2023-01-09T01:37:32;1.23;;;0.90;;
20727;SDS011;10525;50.154;8.198;2023-01-09T01:39:59;1.05;;;1.05;;
20727;SDS011;10525;50.154;8.198;2023-01-09T01:42:27;0.57;;;0.57;;
20727;SDS011;10525;50.154;8.198;2023-01-09T01:44:58;0.80;;;0.80;;
20727;SDS011;10525;50.154;8.198;2023-01-09T01:47:28;0.55;;;0.55;;
20727;SDS011;10525;50.154;8.198;2023-01-09T01:50:01;2.42;;;0.88;;
20727;SDS011;10525;50.154;8.198;2023-01-09T01:52:30;0.60;;;0.60;;
20727;SDS011;10525;50.154;8.198;2023-01-09T01:54:59;1.95;;;0.85;;
20727;SDS011;10525;50.154;8.198;2023-01-09T01:57:29;0.60;;;0.60;;
20727;SDS011;10525;50.154;8.198;2023-01-09T01:59:56;0.65;;;0.65;;
20727;SDS011;10525;50.154;8.198;2023-01-09T02:02:27;0.63;;;0.63;;
20727;SDS011;10525;50.154;8.198;2023-01-09T02:04:56;0.60;;;0.60;;
20727;SDS011;10525;50.154;8.198;2023-01-09T02:07:25;0.50;;;0.50;;
20727;SDS011;10525;50.154;8.198;2023-01-09T02:09:52;0.60;;;0.60;;
20727;SDS011;10525;50.154;8.198;2023-01-09T02:12:20;0.60;;;0.60;;
20727;SDS011;10525;50.154;8.198;2023-01-09T02:14:50;0.50;;;0.50;;
20727;SDS011;10525;50.154;8.198;2023-01-09T02:17:26;0.50;;;0.50;;
20727;SDS011;10525;50.154;8.198;2023-01-09T02:20:16;0.50;;;0.45;;
20727;SDS011;10525;50.154;8.198;2023-01-09T02:22:59;0.60;;;0.60;;
20727;SDS011;10525;50.154;8.198;2023-01-09T02:28:59;0.50;;;0.50;;
20727;SDS011;10525;50.154;8.198;2023-01-09T02:31:43;0.40;;;0.40;;
20727;SDS011;10525;50.154;8.198;2023-01-09T02:34:16;0.50;;;0.50;;
20727;SDS011;10525;50.154;8.198;2023-01-09T02:36:50;0.45;;;0.45;;
20727;SDS011;10525;50.154;8.198;2023-01-09T02:39:25;0.50;;;0.50;;
20727;SDS011;10525;50.154;8.198;2023-01-09T02:41:57;0.60;;;0.60;;
20727;SDS011;10525;50.154;8.198;2023-01-09T02:44:29;0.47;;;0.47;;
20727;SDS011;10525;50.154;8.198;2023-01-09T02:46:59;0.50;;;0.50;;
20727;SDS011;10525;50.154;8.198;2023-01-09T02:49:28;0.50;;;0.50;;
20727;SDS011;10525;50.154;8.198;2023-01-09T02:51:58;0.60;;;0.50;;
20727;SDS011;10525;50.154;8.198;2023-01-09T02:54:36;0.55;;;0.55;;
20727;SDS011;10525;50.154;8.198;2023-01-09T02:57:15;0.60;;;0.60;;
20727;SDS011;10525;50.154;8.198;2023-01-09T03:00:05;0.50;;;0.50;;
20727;SDS011;10525;50.154;8.198;2023-01-09T03:02:42;0.65;;;0.65;;
20727;SDS011;10525;50.154;8.198;2023-01-09T03:05:14;0.60;;;0.60;;
20727;SDS011;10525;50.154;8.198;2023-01-09T03:07:47;0.60;;;0.60;;
20727;SDS011;10525;50.154;8.198;2023-01-09T03:10:22;2.53;;;0.60;;
20727;SDS011;10525;50.154;8.198;2023-01-09T03:12:52;0.60;;;0.60;;
20727;SDS011;10525;50.154;8.198;2023-01-09T03:15:23;0.60;;;0.60;;
20727;SDS011;10525;50.154;8.198;2023-01-09T03:17:54;0.70;;;0.70;;
20727;SDS011;10525;50.154;8.198;2023-01-09T03:20:22;0.50;;;0.50;;
20727;SDS011;10525;50.154;8.198;2023-01-09T03:22:53;1.10;;;0.68;;
20727;SDS011;10525;50.154;8.198;2023-01-09T03:25:20;0.68;;;0.68;;
20727;SDS011;10525;50.154;8.198;2023-01-09T03:27:48;0.60;;;0.60;;
20727;SDS011;10525;50.154;8.198;2023-01-09T03:30:20;0.60;;;0.60;;
20727;SDS011;10525;50.154;8.198;2023-01-09T03:32:47;0.75;;;0.75;;
20727;SDS011;10525;50.154;8.198;2023-01-09T03:35:15;0.80;;;0.80;;
20727;SDS011;10525;50.154;8.198;2023-01-09T03:37:41;0.68;;;0.55;;
20727;SDS011;10525;50.154;8.198;2023-01-09T03:40:09;0.60;;;0.60;;
20727;SDS011;10525;50.154;8.198;2023-01-09T03:42:36;0.73;;;0.70;;
20727;SDS011;10525;50.154;8.198;2023-01-09T03:45:03;0.70;;;0.70;;
20727;SDS011;10525;50.154;8.198;2023-01-09T03:47:31;0.70;;;0.70;;
20727;SDS011;10525;50.154;8.198;2023-01-09T03:49:57;0.60;;;0.60;;
20727;SDS011;10525;50.154;8.198;2023-01-09T03:52:25;0.60;;;0.60;;
20727;SDS011;10525;50.154;8.198;2023-01-09T03:54:52;0.68;;;0.68;;
20727;SDS011;10525;50.154;8.198;2023-01-09T03:57:19;0.65;;;0.65;;
20727;SDS011;10525;50.154;8.198;2023-01-09T03:59:45;0.70;;;0.70;;
20727;SDS011;10525;50.154;8.198;2023-01-09T04:02:12;1.75;;;0.63;;
20727;SDS011;10525;50.154;8.198;2023-01-09T04:04:39;0.60;;;0.60;;
20727;SDS011;10525;50.154;8.198;2023-01-09T04:07:05;0.57;;;0.57;;
20727;SDS011;10525;50.154;8.198;2023-01-09T04:09:33;0.60;;;0.60;;
20727;SDS011;10525;50.154;8.198;2023-01-09T04:12:00;0.50;;;0.50;;
20727;SDS011;10525;50.154;8.198;2023-01-09T04:14:27;1.05;;;0.63;;
20727;SDS011;10525;50.154;8.198;2023-01-09T04:16:53;0.70;;;0.70;;
20727;SDS011;10525;50.154;8.198;2023-01-09T04:19:20;0.60;;;0.60;;
20727;SDS011;10525;50.154;8.198;2023-01-09T04:21:47;0.50;;;0.50;;
20727;SDS011;10525;50.154;8.198;2023-01-09T04:24:13;0.70;;;0.70;;
20727;SDS011;10525;50.154;8.198;2023-01-09T04:26:41;0.68;;;0.68;;
20727;SDS011;10525;50.154;8.198;2023-01-09T04:29:08;1.17;;;0.93;;
20727;SDS011;10525;50.154;8.198;2023-01-09T04:31:35;0.50;;;0.50;;
20727;SDS011;10525;50.154;8.198;2023-01-09T04:34:01;1.70;;;0.80;;
20727;SDS011;10525;50.154;8.198;2023-01-09T04:36:28;0.65;;;0.65;;
20727;SDS011;10525;50.154;8.198;2023-01-09T04:38:55;0.70;;;0.70;;
20727;SDS011;10525;50.154;8.198;2023-01-09T04:41:21;3.10;;;0.80;;
20727;SDS011;10525;50.154;8.198;2023-01-09T04:44:07;0.80;;;0.80;;
20727;SDS011;10525;50.154;8.198;2023-01-09T04:46:33;0.85;;;0.68;;
20727;SDS011;10525;50.154;8.198;2023-01-09T04:49:00;0.85;;;0.73;;
20727;SDS011;10525;50.154;8.198;2023-01-09T04:51:27;1.75;;;0.75;;
20727;SDS011;10525;50.154;8.198;2023-01-09T04:53:53;0.80;;;0.80;;
20727;SDS011;10525;50.154;8.198;2023-01-09T04:56:20;0.60;;;0.60;;
20727;SDS011;10525;50.154;8.198;2023-01-09T04:58:47;0.70;;;0.70;;
20727;SDS011;10525;50.154;8.198;2023-01-09T05:01:15;0.60;;;0.60;;
20727;SDS011;10525;50.154;8.198;2023-01-09T05:03:41;0.60;;;0.60;;
20727;SDS011;10525;50.154;8.198;2023-01-09T05:06:08;3.40;;;0.90;;
20727;SDS011;10525;50.154;8.198;2023-01-09T05:08:35;0.90;;;0.88;;
20727;SDS011;10525;50.154;8.198;2023-01-09T05:11:01;0.80;;;0.80;;
20727;SDS011;10525;50.154;8.198;2023-01-09T05:13:28;0.80;;;0.80;;
20727;SDS011;10525;50.154;8.198;2023-01-09T05:15:55;0.90;;;0.90;;
20727;SDS011;10525;50.154;8.198;2023-01-09T05:18:23;1.08;;;0.80;;
20727;SDS011;10525;50.154;8.198;2023-01-09T05:20:50;2.28;;;1.35;;
20727;SDS011;10525;50.154;8.198;2023-01-09T05:23:16;0.68;;;0.68;;
20727;SDS011;10525;50.154;8.198;2023-01-09T05:25:43;2.40;;;1.10;;
20727;SDS011;10525;50.154;8.198;2023-01-09T05:28:10;1.58;;;0.80;;
20727;SDS011;10525;50.154;8.198;2023-01-09T05:30:36;1.58;;;0.90;;
20727;SDS011;10525;50.154;8.198;2023-01-09T05:33:03;1.20;;;1.10;;
20727;SDS011;10525;50.154;8.198;2023-01-09T05:35:31;1.10;;;1.10;;
20727;SDS011;10525;50.154;8.198;2023-01-09T05:37:57;0.80;;;0.80;;
20727;SDS011;10525;50.154;8.198;2023-01-09T05:40:24;1.85;;;1.00;;
20727;SDS011;10525;50.154;8.198;2023-01-09T05:42:51;0.85;;;0.85;;
20727;SDS011;10525;50.154;8.198;2023-01-09T05:45:17;1.80;;;0.98;;
20727;SDS011;10525;50.154;8.198;2023-01-09T05:47:44;2.08;;;1.13;;
20727;SDS011;10525;50.154;8.198;2023-01-09T05:50:11;4.57;;;1.50;;
20727;SDS011;10525;50.154;8.198;2023-01-09T05:52:39;2.10;;;1.10;;
20727;SDS011;10525;50.154;8.198;2023-01-09T05:55:06;2.40;;;1.00;;
20727;SDS011;10525;50.154;8.198;2023-01-09T05:57:33;1.90;;;1.10;;
20727;SDS011;10525;50.154;8.198;2023-01-09T06:00:00;0.98;;;0.98;;
20727;SDS011;10525;50.154;8.198;2023-01-09T06:02:27;3.50;;;1.20;;
20727;SDS011;10525;50.154;8.198;2023-01-09T06:04:53;2.75;;;1.38;;
20727;SDS011;10525;50.154;8.198;2023-01-09T06:07:20;3.60;;;1.00;;
20727;SDS011;10525;50.154;8.198;2023-01-09T06:09:48;2.38;;;1.00;;
20727;SDS011;10525;50.154;8.198;2023-01-09T06:12:15;6.63;;;0.95;;
20727;SDS011;10525;50.154;8.198;2023-01-09T06:14:41;2.90;;;0.90;;
20727;SDS011;10525;50.154;8.198;2023-01-09T06:17:08;3.97;;;1.20;;
20727;SDS011;10525;50.154;8.198;2023-01-09T06:19:35;1.02;;;1.00;;
20727;SDS011;10525;50.154;8.198;2023-01-09T06:22:01;1.10;;;1.00;;
20727;SDS011;10525;50.154;8.198;2023-01-09T06:24:28;3.72;;;1.40;;
20727;SDS011;10525;50.154;8.198;2023-01-09T06:26:56;1.00;;;1.00;;
20727;SDS011;10525;50.154;8.198;2023-01-09T06:29:23;5.03;;;0.95;;
20727;SDS011;10525;50.154;8.198;2023-01-09T06:31:49;4.57;;;1.35;;
20727;SDS011;10525;50.154;8.198;2023-01-09T06:34:16;1.58;;;1.10;;
20727;SDS011;10525;50.154;8.198;2023-01-09T06:36:43;1.98;;;1.30;;
20727;SDS011;10525;50.154;8.198;2023-01-09T06:39:09;4.63;;;1.40;;
20727;SDS011;10525;50.154;8.198;2023-01-09T06:41:38;3.60;;;1.67;;
20727;SDS011;10525;50.154;8.198;2023-01-09T06:44:06;1.10;;;1.10;;
20727;SDS011;10525;50.154;8.198;2023-01-09T06:46:32;4.75;;;1.13;;
20727;SDS011;10525;50.154;8.198;2023-01-09T06:48:59;4.25;;;1.00;;
20727;SDS011;10525;50.154;8.198;2023-01-09T06:51:25;5.47;;;1.60;;
20727;SDS011;10525;50.154;8.198;2023-01-09T06:53:52;3.80;;;1.40;;
20727;SDS011;10525;50.154;8.198;2023-01-09T06:56:19;2.83;;;1.05;;
20727;SDS011;10525;50.154;8.198;2023-01-09T06:58:45;1.10;;;1.10;;
20727;SDS011;10525;50.154;8.198;2023-01-09T07:01:13;1.25;;;1.20;;
20727;SDS011;10525;50.154;8.198;2023-01-09T07:03:40;2.92;;;1.10;;
20727;SDS011;10525;50.154;8.198;2023-01-09T07:06:07;1.55;;;1.30;;
20727;SDS011;10525;50.154;8.198;2023-01-09T07:08:34;1.52;;;1.00;;
20727;SDS011;10525;50.154;8.198;2023-01-09T07:11:01;2.63;;;0.93;;
20727;SDS011;10525;50.154;8.198;2023-01-09T07:13:27;6.00;;;1.35;;
20727;SDS011;10525;50.154;8.198;2023-01-09T07:15:54;1.10;;;1.10;;
20727;SDS011;10525;50.154;8.198;2023-01-09T07:18:22;2.63;;;0.90;;
20727;SDS011;10525;50.154;8.198;2023-01-09T07:20:49;2.97;;;0.80;;
20727;SDS011;10525;50.154;8.198;2023-01-09T07:23:16;2.05;;;1.00;;
20727;SDS011;10525;50.154;8.198;2023-01-09T07:25:45;1.65;;;1.15;;
20727;SDS011;10525;50.154;8.198;2023-01-09T07:28:12;1.45;;;1.02;;
20727;SDS011;10525;50.154;8.198;2023-01-09T07:30:39;1.00;;;1.00;;
20727;SDS011;10525;50.154;8.198;2023-01-09T07:33:05;1.30;;;1.20;;
20727;SDS011;10525;50.154;8.198;2023-01-09T07:35:33;4.85;;;1.10;;
20727;SDS011;10525;50.154;8.198;2023-01-09T07:38:00;3.58;;;1.17;;
20727;SDS011;10525;50.154;8.198;2023-01-09T07:40:27;3.65;;;1.52;;
20727;SDS011;10525;50.154;8.198;2023-01-09T07:42:53;1.00;;;1.00;;
20727;SDS011;10525;50.154;8.198;2023-01-09T07:45:20;3.40;;;1.00;;
20727;SDS011;10525;50.154;8.198;2023-01-09T07:47:46;2.35;;;1.30;;
20727;SDS011;10525;50.154;8.198;2023-01-09T07:50:13;3.53;;;2.08;;
20727;SDS011;10525;50.154;8.198;2023-01-09T07:52:42;3.22;;;1.83;;
20727;SDS011;10525;50.154;8.198;2023-01-09T07:55:09;1.13;;;1.13;;
20727;SDS011;10525;50.154;8.198;2023-01-09T07:57:36;0.90;;;0.90;;
20727;SDS011;10525;50.154;8.198;2023-01-09T08:00:03;0.90;;;0.90;;
20727;SDS011;10525;50.154;8.198;2023-01-09T08:02:34;0.75;;;0.75;;
20727;SDS011;10525;50.154;8.198;2023-01-09T08:05:01;1.23;;;1.20;;
20727;SDS011;10525;50.154;8.198;2023-01-09T08:07:28;0.93;;;0.93;;
20727;SDS011;10525;50.154;8.198;2023-01-09T08:09:56;0.90;;;0.90;;
20727;SDS011;10525;50.154;8.198;2023-01-09T08:12:23;2.80;;;1.05;;
20727;SDS011;10525;50.154;8.198;2023-01-09T08:14:49;2.03;;;0.80;;
20727;SDS011;10525;50.154;8.198;2023-01-09T08:17:16;1.10;;;1.02;;
20727;SDS011;10525;50.154;8.198;2023-01-09T08:19:43;1.17;;;0.93;;
20727;SDS011;10525;50.154;8.198;2023-01-09T08:22:09;1.00;;;0.80;;
20727;SDS011;10525;50.154;8.198;2023-01-09T08:24:36;4.95;;;1.02;;
20727;SDS011;10525;50.154;8.198;2023-01-09T08:27:04;6.28;;;1.30;;
20727;SDS011;10525;50.154;8.198;2023-01-09T08:29:30;4.68;;;1.23;;
20727;SDS011;10525;50.154;8.198;2023-01-09T08:31:57;1.10;;;1.05;;
20727;SDS011;10525;50.154;8.198;2023-01-09T08:34:24;1.60;;;1.50;;
20727;SDS011;10525;50.154;8.198;2023-01-09T08:36:50;1.92;;;1.40;;
20727;SDS011;10525;50.154;8.198;2023-01-09T08:39:18;1.40;;;1.30;;
20727;SDS011;10525;50.154;8.198;2023-01-09T08:41:45;2.63;;;1.50;;
20727;SDS011;10525;50.154;8.198;2023-01-09T08:44:30;1.90;;;1.42;;
20727;SDS011;10525;50.154;8.198;2023-01-09T08:47:15;6.30;;;1.27;;
20727;SDS011;10525;50.154;8.198;2023-01-09T08:49:46;3.03;;;1.40;;
20727;SDS011;10525;50.154;8.198;2023-01-09T08:52:12;2.50;;;1.20;;
20727;SDS011;10525;50.154;8.198;2023-01-09T08:54:39;0.90;;;0.90;;
20727;SDS011;10525;50.154;8.198;2023-01-09T08:57:06;1.10;;;1.10;;
20727;SDS011;10525;50.154;8.198;2023-01-09T08:59:34;1.77;;;1.30;;
20727;SDS011;10525;50.154;8.198;2023-01-09T09:02:01;4.28;;;1.52;;
20727;SDS011;10525;50.154;8.198;2023-01-09T09:04:28;1.00;;;1.00;;
20727;SDS011;10525;50.154;8.198;2023-01-09T09:06:54;1.50;;;1.40;;
20727;SDS011;10525;50.154;8.198;2023-01-09T09:09:21;1.02;;;1.02;;
20727;SDS011;10525;50.154;8.198;2023-01-09T09:11:49;1.25;;;1.10;;
20727;SDS011;10525;50.154;8.198;2023-01-09T09:14:15;1.98;;;1.58;;
20727;SDS011;10525;50.154;8.198;2023-01-09T09:17:01;1.27;;;1.27;;
20727;SDS011;10525;50.154;8.198;2023-01-09T09:19:28;2.35;;;1.70;;
20727;SDS011;10525;50.154;8.198;2023-01-09T09:21:55;1.92;;;1.30;;
20727;SDS011;10525;50.154;8.198;2023-01-09T09:24:21;1.23;;;1.23;;
20727;SDS011;10525;50.154;8.198;2023-01-09T09:26:48;2.25;;;1.30;;
20727;SDS011;10525;50.154;8.198;2023-01-09T09:29:15;2.25;;;1.20;;
20727;SDS011;10525;50.154;8.198;2023-01-09T09:31:41;1.73;;;1.60;;
20727;SDS011;10525;50.154;8.198;2023-01-09T09:34:09;2.10;;;1.08;;
20727;SDS011;10525;50.154;8.198;2023-01-09T09:36:37;1.50;;;1.20;;
20727;SDS011;10525;50.154;8.198;2023-01-09T09:39:03;1.20;;;1.20;;
20727;SDS011;10525;50.154;8.198;2023-01-09T09:41:46;1.38;;;1.27;;
20727;SDS011;10525;50.154;8.198;2023-01-09T09:44:45;2.70;;;1.30;;
20727;SDS011;10525;50.154;8.198;2023-01-09T09:47:25;3.72;;;1.17;;
20727;SDS011;10525;50.154;8.198;2023-01-09T09:50:05;2.60;;;1.27;;
20727;SDS011;10525;50.154;8.198;2023-01-09T09:52:44;6.40;;;1.30;;
20727;SDS011;10525;50.154;8.198;2023-01-09T09:55:20;1.23;;;1.05;;
20727;SDS011;10525;50.154;8.198;2023-01-09T09:57:50;1.17;;;1.08;;
20727;SDS011;10525;50.154;8.198;2023-01-09T10:00:18;5.45;;;1.92;;
20727;SDS011;10525;50.154;8.198;2023-01-09T10:02:50;4.25;;;1.38;;
20727;SDS011;10525;50.154;8.198;2023-01-09T10:05:23;1.63;;;1.00;;
20727;SDS011;10525;50.154;8.198;2023-01-09T10:07:53;1.20;;;0.90;;
20727;SDS011;10525;50.154;8.198;2023-01-09T10:10:24;1.13;;;0.93;;
20727;SDS011;10525;50.154;8.198;2023-01-09T10:12:57;1.10;;;1.10;;
20727;SDS011;10525;50.154;8.198;2023-01-09T10:15:44;2.75;;;1.02;;
20727;SDS011;10525;50.154;8.198;2023-01-09T10:18:18;2.50;;;1.13;;
20727;SDS011;10525;50.154;8.198;2023-01-09T10:21:00;3.58;;;1.20;;
20727;SDS011;10525;50.154;8.198;2023-01-09T10:23:35;1.05;;;1.00;;
20727;SDS011;10525;50.154;8.198;2023-01-09T10:26:20;2.95;;;1.42;;
20727;SDS011;10525;50.154;8.198;2023-01-09T10:28:58;1.73;;;1.40;;
20727;SDS011;10525;50.154;8.198;2023-01-09T10:31:54;3.80;;;1.13;;
20727;SDS011;10525;50.154;8.198;2023-01-09T10:34:34;2.20;;;1.15;;
20727;SDS011;10525;50.154;8.198;2023-01-09T10:37:12;3.97;;;1.00;;
20727;SDS011;10525;50.154;8.198;2023-01-09T10:39:44;2.08;;;1.00;;
20727;SDS011;10525;50.154;8.198;2023-01-09T10:42:17;2.45;;;1.70;;
20727;SDS011;10525;50.154;8.198;2023-01-09T10:44:50;1.65;;;1.25;;
20727;SDS011;10525;50.154;8.198;2023-01-09T10:47:23;1.85;;;1.10;;
20727;SDS011;10525;50.154;8.198;2023-01-09T10:49:55;1.23;;;1.10;;
20727;SDS011;10525;50.154;8.198;2023-01-09T10:52:27;1.48;;;1.10;;
20727;SDS011;10525;50.154;8.198;2023-01-09T10:54:59;1.33;;;1.25;;
20727;SDS011;10525;50.154;8.198;2023-01-09T10:57:33;0.95;;;0.95;;
20727;SDS011;10525;50.154;8.198;2023-01-09T11:00:06;2.53;;;1.00;;
20727;SDS011;10525;50.154;8.198;2023-01-09T11:02:39;1.42;;;0.93;;
20727;SDS011;10525;50.154;8.198;2023-01-09T11:05:05;1.30;;;1.00;;
20727;SDS011;10525;50.154;8.198;2023-01-09T11:07:38;3.40;;;0.90;;
20727;SDS011;10525;50.154;8.198;2023-01-09T11:10:09;0.90;;;0.90;;
20727;SDS011;10525;50.154;8.198;2023-01-09T11:12:37;1.13;;;1.05;;
20727;SDS011;10525;50.154;8.198;2023-01-09T11:15:21;1.63;;;1.10;;
20727;SDS011;10525;50.154;8.198;2023-01-09T11:17:53;0.90;;;0.90;;
20727;SDS011;10525;50.154;8.198;2023-01-09T11:20:22;0.90;;;0.90;;
20727;SDS011;10525;50.154;8.198;2023-01-09T11:22:52;0.90;;;0.90;;
20727;SDS011;10525;50.154;8.198;2023-01-09T11:25:20;2.95;;;0.75;;
20727;SDS011;10525;50.154;8.198;2023-01-09T11:28:02;5.43;;;1.15;;
20727;SDS011;10525;50.154;8.198;2023-01-09T11:30:30;2.30;;;1.10;;
20727;SDS011;10525;50.154;8.198;2023-01-09T11:33:01;1.10;;;1.00;;
20727;SDS011;10525;50.154;8.198;2023-01-09T11:35:46;1.00;;;1.00;;
20727;SDS011;10525;50.154;8.198;2023-01-09T11:38:21;1.00;;;1.00;;
20727;SDS011;10525;50.154;8.198;2023-01-09T11:40:48;3.25;;;1.02;;
20727;SDS011;10525;50.154;8.198;2023-01-09T11:43:17;1.95;;;1.60;;
20727;SDS011;10525;50.154;8.198;2023-01-09T11:45:54;2.70;;;1.00;;
20727;SDS011;10525;50.154;8.198;2023-01-09T11:48:32;10.30;;;1.42;;
20727;SDS011;10525;50.154;8.198;2023-01-09T11:51:03;1.80;;;0.95;;
20727;SDS011;10525;50.154;8.198;2023-01-09T11:53:44;0.60;;;0.60;;
20727;SDS011;10525;50.154;8.198;2023-01-09T11:56:18;2.20;;;0.93;;
20727;SDS011;10525;50.154;8.198;2023-01-09T11:58:45;0.80;;;0.80;;
20727;SDS011;10525;50.154;8.198;2023-01-09T12:01:16;2.47;;;0.85;;
20727;SDS011;10525;50.154;8.198;2023-01-09T12:04:10;3.20;;;0.68;;
20727;SDS011;10525;50.154;8.198;2023-01-09T12:06:46;6.05;;;0.98;;
20727;SDS011;10525;50.154;8.198;2023-01-09T12:09:32;2.45;;;1.02;;
20727;SDS011;10525;50.154;8.198;2023-01-09T12:12:08;1.00;;;1.00;;
20727;SDS011;10525;50.154;8.198;2023-01-09T12:14:43;1.38;;;1.00;;
20727;SDS011;10525;50.154;8.198;2023-01-09T12:17:26;1.95;;;1.00;;
20727;SDS011;10525;50.154;8.198;2023-01-09T12:20:10;3.22;;;0.93;;
20727;SDS011;10525;50.154;8.198;2023-01-09T12:22:49;2.45;;;1.08;;
20727;SDS011;10525;50.154;8.198;2023-01-09T12:25:25;0.77;;;0.77;;
20727;SDS011;10525;50.154;8.198;2023-01-09T12:28:06;1.50;;;1.10;;
20727;SDS011;10525;50.154;8.198;2023-01-09T12:30:56;0.80;;;0.80;;
20727;SDS011;10525;50.154;8.198;2023-01-09T12:33:37;0.88;;;0.88;;
20727;SDS011;10525;50.154;8.198;2023-01-09T12:36:10;3.10;;;0.98;;
20727;SDS011;10525;50.154;8.198;2023-01-09T12:38:46;2.05;;;1.17;;
20727;SDS011;10525;50.154;8.198;2023-01-09T12:41:33;0.85;;;0.85;;
20727;SDS011;10525;50.154;8.198;2023-01-09T12:44:23;3.45;;;1.35;;
20727;SDS011;10525;50.154;8.198;2023-01-09T12:47:10;1.83;;;0.80;;
20727;SDS011;10525;50.154;8.198;2023-01-09T12:49:45;2.08;;;1.30;;
20727;SDS011;10525;50.154;8.198;2023-01-09T12:52:19;0.75;;;0.75;;
20727;SDS011;10525;50.154;8.198;2023-01-09T12:54:50;0.95;;;0.65;;
20727;SDS011;10525;50.154;8.198;2023-01-09T12:57:24;2.20;;;0.60;;
20727;SDS011;10525;50.154;8.198;2023-01-09T12:59:56;2.40;;;0.77;;
20727;SDS011;10525;50.154;8.198;2023-01-09T13:02:27;2.05;;;1.00;;
20727;SDS011;10525;50.154;8.198;2023-01-09T13:04:59;0.90;;;0.90;;
20727;SDS011;10525;50.154;8.198;2023-01-09T13:07:29;0.90;;;0.90;;
20727;SDS011;10525;50.154;8.198;2023-01-09T13:10:00;2.00;;;0.77;;
20727;SDS011;10525;50.154;8.198;2023-01-09T13:12:32;0.77;;;0.77;;
20727;SDS011;10525;50.154;8.198;2023-01-09T13:15:04;1.60;;;0.90;;
20727;SDS011;10525;50.154;8.198;2023-01-09T13:17:41;0.70;;;0.70;;
20727;SDS011;10525;50.154;8.198;2023-01-09T13:20:16;0.80;;;0.80;;
20727;SDS011;10525;50.154;8.198;2023-01-09T13:22:48;0.80;;;0.80;;
20727;SDS011;10525;50.154;8.198;2023-01-09T13:25:28;0.80;;;0.80;;
20727;SDS011;10525;50.154;8.198;2023-01-09T13:28:10;2.60;;;0.68;;
20727;SDS011;10525;50.154;8.198;2023-01-09T13:30:57;0.82;;;0.82;;
20727;SDS011;10525;50.154;8.198;2023-01-09T13:33:33;1.17;;;0.93;;
20727;SDS011;10525;50.154;8.198;2023-01-09T13:36:01;0.68;;;0.68;;
20727;SDS011;10525;50.154;8.198;2023-01-09T13:38:30;0.75;;;0.75;;
20727;SDS011;10525;50.154;8.198;2023-01-09T13:41:01;0.60;;;0.60;;
20727;SDS011;10525;50.154;8.198;2023-01-09T13:43:56;0.80;;;0.80;;
20727;SDS011;10525;50.154;8.198;2023-01-09T13:46:32;1.33;;;1.00;;
20727;SDS011;10525;50.154;8.198;2023-01-09T13:49:01;5.93;;;1.17;;
20727;SDS011;10525;50.154;8.198;2023-01-09T13:57:28;0.90;;;0.90;;
20727;SDS011;10525;50.154;8.198;2023-01-09T14:00:24;0.73;;;0.73;;
20727;SDS011;10525;50.154;8.198;2023-01-09T14:03:14;1.45;;;0.93;;
20727;SDS011;10525;50.154;8.198;2023-01-09T14:08:42;0.70;;;0.70;;
20727;SDS011;10525;50.154;8.198;2023-01-09T14:11:16;2.10;;;0.77;;
20727;SDS011;10525;50.154;8.198;2023-01-09T14:13:45;0.85;;;0.85;;
20727;SDS011;10525;50.154;8.198;2023-01-09T14:16:23;1.00;;;1.00;;
20727;SDS011;10525;50.154;8.198;2023-01-09T14:18:52;0.93;;;0.93;;
20727;SDS011;10525;50.154;8.198;2023-01-09T14:21:21;1.00;;;1.00;;
20727;SDS011;10525;50.154;8.198;2023-01-09T14:23:50;2.75;;;1.83;;
20727;SDS011;10525;50.154;8.198;2023-01-09T14:26:25;0.90;;;0.90;;
20727;SDS011;10525;50.154;8.198;2023-01-09T14:35:09;4.18;;;0.90;;
20727;SDS011;10525;50.154;8.198;2023-01-09T14:37:40;1.05;;;0.90;;
20727;SDS011;10525;50.154;8.198;2023-01-09T14:40:14;2.35;;;1.05;;
20727;SDS011;10525;50.154;8.198;2023-01-09T14:42:45;1.48;;;1.02;;
20727;SDS011;10525;50.154;8.198;2023-01-09T14:45:17;1.30;;;1.30;;
20727;SDS011;10525;50.154;8.198;2023-01-09T14:47:48;1.75;;;1.40;;
20727;SDS011;10525;50.154;8.198;2023-01-09T14:50:21;2.38;;;1.30;;
20727;SDS011;10525;50.154;8.198;2023-01-09T14:52:56;1.40;;;1.30;;
20727;SDS011;10525;50.154;8.198;2023-01-09T14:55:29;1.70;;;1.50;;
20727;SDS011;10525;50.154;8.198;2023-01-09T14:58:11;4.20;;;1.10;;
20727;SDS011;10525;50.154;8.198;2023-01-09T15:00:45;1.52;;;1.25;;
20727;SDS011;10525;50.154;8.198;2023-01-09T15:03:15;1.10;;;1.10;;
20727;SDS011;10525;50.154;8.198;2023-01-09T15:05:42;2.42;;;1.05;;
20727;SDS011;10525;50.154;8.198;2023-01-09T15:08:11;1.08;;;0.93;;
20727;SDS011;10525;50.154;8.198;2023-01-09T15:10:42;1.05;;;0.93;;
20727;SDS011;10525;50.154;8.198;2023-01-09T15:13:12;1.45;;;0.77;;
20727;SDS011;10525;50.154;8.198;2023-01-09T15:15:44;0.80;;;0.80;;
20727;SDS011;10525;50.154;8.198;2023-01-09T15:18:16;3.92;;;0.80;;
20727;SDS011;10525;50.154;8.198;2023-01-09T15:20:50;0.88;;;0.88;;
20727;SDS011;10525;50.154;8.198;2023-01-09T15:23:21;1.17;;;0.90;;
20727;SDS011;10525;50.154;8.198;2023-01-09T15:25:49;1.50;;;0.90;;
20727;SDS011;10525;50.154;8.198;2023-01-09T15:28:27;3.38;;;0.93;;